sensor_id;sensor_type;location;lat;lon;timestamp;pressure;altitude;pressure_sealevel;temperature;humidity
11856;BME280;5987;53.140;8.904;2023-02-28T00:01:58;103181.88;;;1.61;100.00
11856;BME280;5987;53.140;8.904;2023-02-28T00:05:04;103175.72;;;1.59;100.00
11856;BME280;5987;53.140;8.904;2023-02-28T00:08:09;103178.22;;;1.56;100.00
11856;BME280;5987;53.140;8.904;2023-02-28T00:11:15;103173.09;;;1.57;100.00
11856;BME280;5987;53.140;8.904;2023-02-28T00:14:19;103175.72;;;1.59;100.00
11856;BME280;5987;53.140;8.904;2023-02-28T00:17:22;103173.91;;;1.56;100.00
11856;BME280;5987;53.140;8.904;2023-02-28T00:20:27;103167.00;;;1.55;100.00
11856;BME280;5987;53.140;8.904;2023-02-28T00:23:32;103167.84;;;1.56;100.00
11856;BME280;5987;53.140;8.904;2023-02-28T00:26:35;103167.75;;;1.52;100.00
11856;BME280;5987;53.140;8.904;2023-02-28T00:29:39;103174.56;;;1.50;100.00
11856;BME280;5987;53.140;8.904;2023-02-28T00:32:44;103174.56;;;1.50;100.00
11856;BME280;5987;53.140;8.904;2023-02-28T00:35:49;103175.47;;;1.51;100.00
11856;BME280;5987;53.140;8.904;2023-02-28T00:38:53;103174.31;;;1.44;100.00
11856;BME280;5987;53.140;8.904;2023-02-28T00:41:57;103172.81;;;1.49;100.00
11856;BME280;5987;53.140;8.904;2023-02-28T00:45:01;103171.31;;;1.56;100.00
11856;BME280;5987;53.140;8.904;2023-02-28T00:48:06;103171.56;;;1.40;100.00
11856;BME280;5987;53.140;8.904;2023-02-28T00:51:11;103180.78;;;1.33;100.00
11856;BME280;5987;53.140;8.904;2023-02-28T00:54:15;103180.31;;;1.43;100.00
11856;BME280;5987;53.140;8.904;2023-02-28T00:57:19;103179.28;;;1.38;100.00
11856;BME280;5987;53.140;8.904;2023-02-28T01:00:23;103180.09;;;1.37;100.00
11856;BME280;5987;53.140;8.904;2023-02-28T01:03:27;103185.84;;;1.30;100.00
11856;BME280;5987;53.140;8.904;2023-02-28T01:06:32;103199.50;;;1.26;100.00
11856;BME280;5987;53.140;8.904;2023-02-28T01:09:36;103198.78;;;1.30;100.00
11856;BME280;5987;53.140;8.904;2023-02-28T01:12:40;103193.63;;;1.30;100.00
11856;BME280;5987;53.140;8.904;2023-02-28T01:15:50;103191.91;;;1.30;100.00
11856;BME280;5987;53.140;8.904;2023-02-28T01:18:54;103188.44;;;1.30;100.00
11856;BME280;5987;53.140;8.904;2023-02-28T01:22:01;103191.16;;;1.33;100.00
11856;BME280;5987;53.140;8.904;2023-02-28T01:25:06;103194.44;;;1.29;100.00
11856;BME280;5987;53.140;8.904;2023-02-28T01:28:10;103203.06;;;1.29;100.00
11856;BME280;5987;53.140;8.904;2023-02-28T01:31:16;103204.91;;;1.32;100.00
11856;BME280;5987;53.140;8.904;2023-02-28T01:34:21;103193.72;;;1.33;100.00
11856;BME280;5987;53.140;8.904;2023-02-28T01:37:26;103200.56;;;1.31;100.00
11856;BME280;5987;53.140;8.904;2023-02-28T01:40:30;103194.66;;;1.35;100.00
11856;BME280;5987;53.140;8.904;2023-02-28T01:44:04;103189.63;;;1.38;100.00
11856;BME280;5987;53.140;8.904;2023-02-28T01:47:08;103190.38;;;1.35;100.00
11856;BME280;5987;53.140;8.904;2023-02-28T01:50:16;103192.84;;;1.32;100.00
11856;BME280;5987;53.140;8.904;2023-02-28T01:53:29;103199.84;;;1.35;100.00
11856;BME280;5987;53.140;8.904;2023-02-28T01:56:37;103197.13;;;1.32;100.00
11856;BME280;5987;53.140;8.904;2023-02-28T01:59:47;103192.81;;;1.31;100.00
11856;BME280;5987;53.140;8.904;2023-02-28T02:02:59;103192.91;;;1.34;100.00
11856;BME280;5987;53.140;8.904;2023-02-28T02:06:04;103194.31;;;1.26;100.00
11856;BME280;5987;53.140;8.904;2023-02-28T02:09:09;103192.44;;;1.22;100.00
11856;BME280;5987;53.140;8.904;2023-02-28T02:12:27;103197.22;;;1.12;100.00
11856;BME280;5987;53.140;8.904;2023-02-28T02:15:44;103189.66;;;1.17;100.00
11856;BME280;5987;53.140;8.904;2023-02-28T02:18:55;103187.13;;;1.18;100.00
11856;BME280;5987;53.140;8.904;2023-02-28T02:22:25;103181.56;;;1.09;100.00
11856;BME280;5987;53.140;8.904;2023-02-28T02:25:43;103188.56;;;1.12;100.00
11856;BME280;5987;53.140;8.904;2023-02-28T02:29:32;103178.47;;;1.18;100.00
11856;BME280;5987;53.140;8.904;2023-02-28T02:32:58;103184.97;;;1.08;100.00
11856;BME280;5987;53.140;8.904;2023-02-28T02:36:13;103177.22;;;1.08;100.00
11856;BME280;5987;53.140;8.904;2023-02-28T02:39:30;103177.03;;;1.03;100.00
11856;BME280;5987;53.140;8.904;2023-02-28T02:42:46;103178.19;;;1.10;100.00
11856;BME280;5987;53.140;8.904;2023-02-28T02:45:56;103181.47;;;1.06;100.00
11856;BME280;5987;53.140;8.904;2023-02-28T02:49:07;103185.06;;;1.10;100.00
11856;BME280;5987;53.140;8.904;2023-02-28T02:52:18;103173.00;;;1.10;100.00
11856;BME280;5987;53.140;8.904;2023-02-28T02:55:25;103188.00;;;0.98;100.00
11856;BME280;5987;53.140;8.904;2023-02-28T02:58:36;103181.22;;;1.00;100.00
11856;BME280;5987;53.140;8.904;2023-02-28T03:01:45;103182.22;;;1.03;100.00
11856;BME280;5987;53.140;8.904;2023-02-28T03:04:54;103181.00;;;0.95;100.00
11856;BME280;5987;53.140;8.904;2023-02-28T03:08:05;103182.59;;;0.92;100.00
11856;BME280;5987;53.140;8.904;2023-02-28T03:11:14;103189.34;;;0.88;100.00
11856;BME280;5987;53.140;8.904;2023-02-28T03:14:51;103178.47;;;0.97;100.00
11856;BME280;5987;53.140;8.904;2023-02-28T03:18:07;103183.72;;;0.77;100.00
11856;BME280;5987;53.140;8.904;2023-02-28T03:21:22;103185.47;;;0.78;100.00
11856;BME280;5987;53.140;8.904;2023-02-28T03:24:37;103185.03;;;0.67;100.00
11856;BME280;5987;53.140;8.904;2023-02-28T03:27:58;103189.13;;;0.62;100.00
11856;BME280;5987;53.140;8.904;2023-02-28T03:31:14;103180.22;;;0.56;100.00
11856;BME280;5987;53.140;8.904;2023-02-28T03:34:26;103183.25;;;0.45;100.00
11856;BME280;5987;53.140;8.904;2023-02-28T03:37:35;103188.47;;;0.47;100.00
11856;BME280;5987;53.140;8.904;2023-02-28T03:40:48;103192.50;;;0.40;100.00
11856;BME280;5987;53.140;8.904;2023-02-28T03:43:56;103192.06;;;0.31;100.00
11856;BME280;5987;53.140;8.904;2023-02-28T03:47:07;103194.09;;;0.17;100.00
11856;BME280;5987;53.140;8.904;2023-02-28T03:50:18;103188.75;;;0.14;100.00
11856;BME280;5987;53.140;8.904;2023-02-28T03:53:29;103195.00;;;-0.01;100.00
11856;BME280;5987;53.140;8.904;2023-02-28T03:56:41;103197.19;;;0.10;100.00
11856;BME280;5987;53.140;8.904;2023-02-28T03:59:53;103200.84;;;-0.05;100.00
11856;BME280;5987;53.140;8.904;2023-02-28T04:02:58;103197.03;;;-0.13;100.00
11856;BME280;5987;53.140;8.904;2023-02-28T04:06:03;103198.81;;;-0.12;100.00
11856;BME280;5987;53.140;8.904;2023-02-28T04:09:10;103208.72;;;-0.02;100.00
11856;BME280;5987;53.140;8.904;2023-02-28T04:12:16;103210.41;;;-0.22;100.00
11856;BME280;5987;53.140;8.904;2023-02-28T04:15:20;103203.75;;;-0.16;100.00
11856;BME280;5987;53.140;8.904;2023-02-28T04:18:25;103214.69;;;-0.22;100.00
11856;BME280;5987;53.140;8.904;2023-02-28T04:21:29;103210.06;;;-0.29;100.00
11856;BME280;5987;53.140;8.904;2023-02-28T04:24:33;103223.84;;;-0.29;100.00
11856;BME280;5987;53.140;8.904;2023-02-28T04:27:38;103215.00;;;-0.34;100.00
11856;BME280;5987;53.140;8.904;2023-02-28T04:30:41;103214.25;;;-0.31;100.00
11856;BME280;5987;53.140;8.904;2023-02-28T04:33:45;103217.44;;;-0.37;100.00
11856;BME280;5987;53.140;8.904;2023-02-28T04:36:49;103217.44;;;-0.37;100.00
11856;BME280;5987;53.140;8.904;2023-02-28T04:40:13;103217.16;;;-0.43;100.00
11856;BME280;5987;53.140;8.904;2023-02-28T04:43:18;103226.66;;;-0.42;100.00
11856;BME280;5987;53.140;8.904;2023-02-28T04:46:22;103215.50;;;-0.41;100.00
11856;BME280;5987;53.140;8.904;2023-02-28T04:49:26;103214.56;;;-0.43;100.00
11856;BME280;5987;53.140;8.904;2023-02-28T04:52:30;103210.50;;;-0.38;100.00
11856;BME280;5987;53.140;8.904;2023-02-28T04:55:34;103217.81;;;-0.47;100.00
11856;BME280;5987;53.140;8.904;2023-02-28T04:58:39;103210.22;;;-0.44;100.00
11856;BME280;5987;53.140;8.904;2023-02-28T05:01:47;103209.03;;;-0.51;100.00
11856;BME280;5987;53.140;8.904;2023-02-28T05:04:50;103212.34;;;-0.54;100.00
11856;BME280;5987;53.140;8.904;2023-02-28T05:07:54;103202.06;;;-0.72;100.00
11856;BME280;5987;53.140;8.904;2023-02-28T05:10:58;103216.22;;;-0.81;100.00
11856;BME280;5987;53.140;8.904;2023-02-28T05:14:08;103215.16;;;-0.85;100.00
11856;BME280;5987;53.140;8.904;2023-02-28T05:17:12;103215.31;;;-0.82;100.00
11856;BME280;5987;53.140;8.904;2023-02-28T05:20:17;103221.19;;;-0.84;100.00
11856;BME280;5987;53.140;8.904;2023-02-28T05:23:23;103225.28;;;-1.06;100.00
11856;BME280;5987;53.140;8.904;2023-02-28T05:26:27;103225.28;;;-1.06;100.00
11856;BME280;5987;53.140;8.904;2023-02-28T05:29:32;103229.38;;;-1.28;100.00
11856;BME280;5987;53.140;8.904;2023-02-28T05:32:36;103235.09;;;-1.33;100.00
11856;BME280;5987;53.140;8.904;2023-02-28T05:35:41;103235.19;;;-1.32;100.00
11856;BME280;5987;53.140;8.904;2023-02-28T05:38:47;103236.78;;;-1.34;100.00
11856;BME280;5987;53.140;8.904;2023-02-28T05:41:51;103227.94;;;-1.39;100.00
11856;BME280;5987;53.140;8.904;2023-02-28T05:44:56;103232.03;;;-1.43;100.00
11856;BME280;5987;53.140;8.904;2023-02-28T05:48:00;103232.63;;;-1.48;100.00
11856;BME280;5987;53.140;8.904;2023-02-28T05:51:04;103226.09;;;-1.42;100.00
11856;BME280;5987;53.140;8.904;2023-02-28T05:54:09;103232.94;;;-1.59;100.00
11856;BME280;5987;53.140;8.904;2023-02-28T05:57:15;103228.94;;;-1.70;100.00
11856;BME280;5987;53.140;8.904;2023-02-28T06:00:27;103241.38;;;-1.78;100.00
11856;BME280;5987;53.140;8.904;2023-02-28T06:03:31;103245.66;;;-1.78;100.00
11856;BME280;5987;53.140;8.904;2023-02-28T06:06:35;103252.25;;;-1.83;100.00
11856;BME280;5987;53.140;8.904;2023-02-28T06:09:40;103253.53;;;-1.92;100.00
11856;BME280;5987;53.140;8.904;2023-02-28T06:12:43;103256.91;;;-1.93;100.00
11856;BME280;5987;53.140;8.904;2023-02-28T06:15:48;103262.72;;;-1.97;100.00
11856;BME280;5987;53.140;8.904;2023-02-28T06:18:52;103267.56;;;-2.01;100.00
11856;BME280;5987;53.140;8.904;2023-02-28T06:21:58;103266.72;;;-2.02;100.00
11856;BME280;5987;53.140;8.904;2023-02-28T06:25:02;103258.59;;;-1.93;100.00
11856;BME280;5987;53.140;8.904;2023-02-28T06:28:05;103270.22;;;-2.00;100.00
11856;BME280;5987;53.140;8.904;2023-02-28T06:31:14;103271.63;;;-1.90;100.00
11856;BME280;5987;53.140;8.904;2023-02-28T06:34:18;103268.88;;;-1.93;100.00
11856;BME280;5987;53.140;8.904;2023-02-28T06:37:21;103267.22;;;-1.93;100.00
11856;BME280;5987;53.140;8.904;2023-02-28T06:40:28;103272.81;;;-2.00;100.00
11856;BME280;5987;53.140;8.904;2023-02-28T06:43:37;103278.31;;;-1.94;100.00
11856;BME280;5987;53.140;8.904;2023-02-28T06:46:44;103280.88;;;-1.94;100.00
11856;BME280;5987;53.140;8.904;2023-02-28T06:49:48;103282.75;;;-1.91;100.00
11856;BME280;5987;53.140;8.904;2023-02-28T06:52:51;103283.88;;;-1.86;100.00
11856;BME280;5987;53.140;8.904;2023-02-28T06:55:57;103281.22;;;-1.87;100.00
11856;BME280;5987;53.140;8.904;2023-02-28T06:59:02;103271.06;;;-1.84;100.00
11856;BME280;5987;53.140;8.904;2023-02-28T07:02:08;103280.81;;;-1.79;100.00
11856;BME280;5987;53.140;8.904;2023-02-28T07:05:12;103281.97;;;-1.74;100.00
11856;BME280;5987;53.140;8.904;2023-02-28T07:08:16;103280.25;;;-1.73;100.00
11856;BME280;5987;53.140;8.904;2023-02-28T07:11:20;103285.13;;;-1.63;100.00
11856;BME280;5987;53.140;8.904;2023-02-28T07:14:27;103287.50;;;-1.49;100.00
11856;BME280;5987;53.140;8.904;2023-02-28T07:17:32;103289.94;;;-1.52;100.00
11856;BME280;5987;53.140;8.904;2023-02-28T07:20:36;103287.59;;;-1.48;100.00
11856;BME280;5987;53.140;8.904;2023-02-28T07:23:40;103290.25;;;-1.13;100.00
11856;BME280;5987;53.140;8.904;2023-02-28T07:26:44;103299.69;;;-1.14;100.00
11856;BME280;5987;53.140;8.904;2023-02-28T07:29:48;103295.97;;;-1.02;100.00
11856;BME280;5987;53.140;8.904;2023-02-28T07:32:53;103291.50;;;-0.89;100.00
11856;BME280;5987;53.140;8.904;2023-02-28T07:36:01;103288.09;;;-0.88;100.00
11856;BME280;5987;53.140;8.904;2023-02-28T07:39:05;103292.09;;;-0.76;100.00
11856;BME280;5987;53.140;8.904;2023-02-28T07:42:11;103292.72;;;-0.64;100.00
11856;BME280;5987;53.140;8.904;2023-02-28T07:45:21;103291.75;;;-0.66;100.00
11856;BME280;5987;53.140;8.904;2023-02-28T07:48:26;103292.34;;;-0.54;100.00
11856;BME280;5987;53.140;8.904;2023-02-28T07:51:31;103290.81;;;-0.32;100.00
11856;BME280;5987;53.140;8.904;2023-02-28T07:54:35;103292.28;;;-0.19;100.00
11856;BME280;5987;53.140;8.904;2023-02-28T07:57:39;103284.34;;;-0.24;100.00
11856;BME280;5987;53.140;8.904;2023-02-28T08:00:43;103293.47;;;-0.12;100.00
11856;BME280;5987;53.140;8.904;2023-02-28T08:03:48;103287.91;;;-0.02;100.00
11856;BME280;5987;53.140;8.904;2023-02-28T08:06:52;103297.91;;;0.10;100.00
11856;BME280;5987;53.140;8.904;2023-02-28T08:09:56;103302.41;;;0.14;100.00
11856;BME280;5987;53.140;8.904;2023-02-28T08:13:00;103298.56;;;0.24;100.00
11856;BME280;5987;53.140;8.904;2023-02-28T08:16:04;103300.00;;;0.56;100.00
11856;BME280;5987;53.140;8.904;2023-02-28T08:19:09;103296.69;;;0.59;100.00
11856;BME280;5987;53.140;8.904;2023-02-28T08:22:13;103296.00;;;0.63;100.00
11856;BME280;5987;53.140;8.904;2023-02-28T08:25:17;103300.91;;;0.76;100.00
11856;BME280;5987;53.140;8.904;2023-02-28T08:28:21;103300.69;;;0.91;100.00
11856;BME280;5987;53.140;8.904;2023-02-28T08:31:28;103298.97;;;1.11;100.00
11856;BME280;5987;53.140;8.904;2023-02-28T08:34:33;103297.25;;;1.12;100.00
11856;BME280;5987;53.140;8.904;2023-02-28T08:37:37;103305.88;;;1.12;100.00
11856;BME280;5987;53.140;8.904;2023-02-28T08:40:41;103302.13;;;1.67;100.00
11856;BME280;5987;53.140;8.904;2023-02-28T08:43:45;103287.56;;;1.71;100.00
11856;BME280;5987;53.140;8.904;2023-02-28T08:46:48;103283.69;;;1.82;100.00
11856;BME280;5987;53.140;8.904;2023-02-28T08:49:53;103287.03;;;1.80;100.00
11856;BME280;5987;53.140;8.904;2023-02-28T08:52:57;103282.06;;;1.84;100.00
11856;BME280;5987;53.140;8.904;2023-02-28T08:56:05;103286.94;;;1.77;100.00
11856;BME280;5987;53.140;8.904;2023-02-28T08:59:09;103286.53;;;2.11;100.00
11856;BME280;5987;53.140;8.904;2023-02-28T09:02:14;103283.72;;;2.29;100.00
11856;BME280;5987;53.140;8.904;2023-02-28T09:05:19;103298.59;;;2.11;100.00
11856;BME280;5987;53.140;8.904;2023-02-28T09:08:24;103288.00;;;2.75;100.00
11856;BME280;5987;53.140;8.904;2023-02-28T09:11:28;103281.94;;;2.75;100.00
11856;BME280;5987;53.140;8.904;2023-02-28T09:14:31;103291.03;;;2.64;100.00
11856;BME280;5987;53.140;8.904;2023-02-28T09:17:35;103286.78;;;2.66;100.00
11856;BME280;5987;53.140;8.904;2023-02-28T09:20:42;103289.00;;;2.79;100.00
11856;BME280;5987;53.140;8.904;2023-02-28T09:23:49;103291.78;;;3.09;100.00
11856;BME280;5987;53.140;8.904;2023-02-28T09:26:53;103285.91;;;3.15;100.00
11856;BME280;5987;53.140;8.904;2023-02-28T09:30:08;103284.16;;;3.14;100.00
11856;BME280;5987;53.140;8.904;2023-02-28T09:33:12;103283.63;;;2.99;100.00
11856;BME280;5987;53.140;8.904;2023-02-28T09:36:18;103284.03;;;3.11;100.00
11856;BME280;5987;53.140;8.904;2023-02-28T09:39:24;103283.13;;;2.85;100.00
11856;BME280;5987;53.140;8.904;2023-02-28T09:42:33;103284.66;;;3.30;100.00
11856;BME280;5987;53.140;8.904;2023-02-28T09:45:41;103280.84;;;3.46;100.00
11856;BME280;5987;53.140;8.904;2023-02-28T09:48:48;103283.69;;;3.53;100.00
11856;BME280;5987;53.140;8.904;2023-02-28T09:51:59;103280.66;;;3.95;100.00
11856;BME280;5987;53.140;8.904;2023-02-28T09:55:20;103293.25;;;3.82;100.00
11856;BME280;5987;53.140;8.904;2023-02-28T09:58:33;103291.25;;;4.02;100.00
11856;BME280;5987;53.140;8.904;2023-02-28T10:01:51;103287.91;;;3.50;100.00
11856;BME280;5987;53.140;8.904;2023-02-28T10:05:01;103289.91;;;3.58;100.00
11856;BME280;5987;53.140;8.904;2023-02-28T10:08:14;103292.47;;;3.84;100.00
11856;BME280;5987;53.140;8.904;2023-02-28T10:11:20;103285.47;;;4.12;100.00
11856;BME280;5987;53.140;8.904;2023-02-28T10:14:28;103295.84;;;3.82;100.00
11856;BME280;5987;53.140;8.904;2023-02-28T10:17:39;103295.59;;;3.74;100.00
11856;BME280;5987;53.140;8.904;2023-02-28T10:21:03;103297.91;;;3.93;100.00
11856;BME280;5987;53.140;8.904;2023-02-28T10:24:21;103298.00;;;4.25;100.00
11856;BME280;5987;53.140;8.904;2023-02-28T10:27:30;103295.63;;;4.33;100.00
11856;BME280;5987;53.140;8.904;2023-02-28T10:30:36;103305.44;;;3.84;100.00
11856;BME280;5987;53.140;8.904;2023-02-28T10:33:43;103303.47;;;4.04;100.00
11856;BME280;5987;53.140;8.904;2023-02-28T10:36:48;103292.91;;;4.28;100.00
11856;BME280;5987;53.140;8.904;2023-02-28T10:39:54;103303.16;;;3.95;100.00
11856;BME280;5987;53.140;8.904;2023-02-28T10:43:01;103289.19;;;4.20;100.00
11856;BME280;5987;53.140;8.904;2023-02-28T10:46:14;103295.25;;;4.19;100.00
11856;BME280;5987;53.140;8.904;2023-02-28T10:49:29;103284.69;;;4.15;100.00
11856;BME280;5987;53.140;8.904;2023-02-28T10:52:37;103278.94;;;4.25;100.00
11856;BME280;5987;53.140;8.904;2023-02-28T10:55:43;103287.31;;;4.16;100.00
11856;BME280;5987;53.140;8.904;2023-02-28T10:58:53;103280.56;;;4.21;100.00
11856;BME280;5987;53.140;8.904;2023-02-28T11:01:58;103290.72;;;4.44;100.00
11856;BME280;5987;53.140;8.904;2023-02-28T11:05:01;103288.25;;;4.49;100.00
11856;BME280;5987;53.140;8.904;2023-02-28T11:08:12;103282.75;;;4.70;100.00
11856;BME280;5987;53.140;8.904;2023-02-28T11:11:20;103285.34;;;4.36;100.00
11856;BME280;5987;53.140;8.904;2023-02-28T11:14:28;103283.25;;;4.55;100.00
11856;BME280;5987;53.140;8.904;2023-02-28T11:17:34;103275.34;;;4.52;100.00
11856;BME280;5987;53.140;8.904;2023-02-28T11:20:39;103282.69;;;4.67;100.00
11856;BME280;5987;53.140;8.904;2023-02-28T11:23:43;103276.50;;;4.61;100.00
11856;BME280;5987;53.140;8.904;2023-02-28T11:26:49;103275.78;;;4.67;100.00
11856;BME280;5987;53.140;8.904;2023-02-28T11:29:53;103281.28;;;4.46;100.00
11856;BME280;5987;53.140;8.904;2023-02-28T11:32:57;103276.97;;;4.48;100.00
11856;BME280;5987;53.140;8.904;2023-02-28T11:36:08;103272.91;;;4.58;100.00
11856;BME280;5987;53.140;8.904;2023-02-28T11:39:14;103271.81;;;4.50;100.00
11856;BME280;5987;53.140;8.904;2023-02-28T11:42:50;103267.63;;;4.55;100.00
11856;BME280;5987;53.140;8.904;2023-02-28T11:46:17;103270.00;;;4.47;100.00
11856;BME280;5987;53.140;8.904;2023-02-28T11:49:35;103262.63;;;4.62;100.00
11856;BME280;5987;53.140;8.904;2023-02-28T11:52:50;103265.13;;;4.91;100.00
11856;BME280;5987;53.140;8.904;2023-02-28T11:56:06;103251.38;;;4.63;100.00
11856;BME280;5987;53.140;8.904;2023-02-28T11:59:42;103253.88;;;4.59;100.00
11856;BME280;5987;53.140;8.904;2023-02-28T12:03:07;103249.56;;;4.93;100.00
11856;BME280;5987;53.140;8.904;2023-02-28T12:06:25;103248.75;;;4.62;100.00
11856;BME280;5987;53.140;8.904;2023-02-28T12:09:55;103242.19;;;4.76;99.29
11856;BME280;5987;53.140;8.904;2023-02-28T12:13:18;103236.97;;;4.76;100.00
11856;BME280;5987;53.140;8.904;2023-02-28T12:16:53;103235.78;;;4.97;100.00
11856;BME280;5987;53.140;8.904;2023-02-28T12:20:11;103231.13;;;4.85;100.00
11856;BME280;5987;53.140;8.904;2023-02-28T12:23:46;103230.03;;;4.75;100.00
11856;BME280;5987;53.140;8.904;2023-02-28T12:26:54;103212.91;;;4.85;100.00
11856;BME280;5987;53.140;8.904;2023-02-28T12:30:05;103214.19;;;4.68;100.00
11856;BME280;5987;53.140;8.904;2023-02-28T12:33:14;103204.88;;;5.11;100.00
11856;BME280;5987;53.140;8.904;2023-02-28T12:36:21;103202.00;;;5.37;97.17
11856;BME280;5987;53.140;8.904;2023-02-28T12:39:30;103198.34;;;5.28;91.71
11856;BME280;5987;53.140;8.904;2023-02-28T12:42:53;103196.75;;;5.35;83.35
11856;BME280;5987;53.140;8.904;2023-02-28T12:46:07;103185.88;;;5.15;82.70
11856;BME280;5987;53.140;8.904;2023-02-28T12:49:19;103175.53;;;5.18;82.57
11856;BME280;5987;53.140;8.904;2023-02-28T12:52:37;103182.00;;;4.64;86.17
11856;BME280;5987;53.140;8.904;2023-02-28T12:55:55;103175.03;;;4.96;73.25
11856;BME280;5987;53.140;8.904;2023-02-28T12:59:07;103165.88;;;5.14;70.71
11856;BME280;5987;53.140;8.904;2023-02-28T13:03:02;103177.06;;;5.10;70.31
11856;BME280;5987;53.140;8.904;2023-02-28T13:06:32;103170.06;;;5.07;75.19
11856;BME280;5987;53.140;8.904;2023-02-28T13:09:52;103172.19;;;5.24;77.91
11856;BME280;5987;53.140;8.904;2023-02-28T13:12:57;103165.91;;;5.15;78.94
11856;BME280;5987;53.140;8.904;2023-02-28T13:16:05;103151.41;;;5.27;77.79
11856;BME280;5987;53.140;8.904;2023-02-28T13:19:11;103155.63;;;5.22;77.92
11856;BME280;5987;53.140;8.904;2023-02-28T13:22:38;103150.19;;;5.49;76.31
11856;BME280;5987;53.140;8.904;2023-02-28T13:25:53;103153.16;;;5.66;79.49
11856;BME280;5987;53.140;8.904;2023-02-28T13:29:27;103157.16;;;5.50;74.32
11856;BME280;5987;53.140;8.904;2023-02-28T13:32:36;103148.47;;;5.51;76.71
11856;BME280;5987;53.140;8.904;2023-02-28T13:35:45;103137.91;;;5.43;75.51
11856;BME280;5987;53.140;8.904;2023-02-28T13:38:50;103149.94;;;5.38;76.30
11856;BME280;5987;53.140;8.904;2023-02-28T13:41:55;103146.19;;;5.66;76.81
11856;BME280;5987;53.140;8.904;2023-02-28T13:45:26;103141.78;;;5.23;74.16
11856;BME280;5987;53.140;8.904;2023-02-28T13:48:33;103141.59;;;5.53;80.13
11856;BME280;5987;53.140;8.904;2023-02-28T13:51:43;103131.69;;;5.38;75.88
11856;BME280;5987;53.140;8.904;2023-02-28T13:58:48;103126.13;;;5.62;75.74
11856;BME280;5987;53.140;8.904;2023-02-28T14:02:30;103124.44;;;5.64;77.12
11856;BME280;5987;53.140;8.904;2023-02-28T14:05:39;103121.69;;;5.58;78.27
11856;BME280;5987;53.140;8.904;2023-02-28T14:08:55;103115.03;;;5.71;74.87
11856;BME280;5987;53.140;8.904;2023-02-28T14:12:52;103115.59;;;5.56;75.02
11856;BME280;5987;53.140;8.904;2023-02-28T14:15:59;103120.72;;;5.52;72.60
11856;BME280;5987;53.140;8.904;2023-02-28T14:19:12;103123.81;;;5.35;74.65
11856;BME280;5987;53.140;8.904;2023-02-28T14:22:44;103126.81;;;5.14;75.52
11856;BME280;5987;53.140;8.904;2023-02-28T14:26:01;103134.16;;;5.30;76.48
11856;BME280;5987;53.140;8.904;2023-02-28T14:29:30;103132.16;;;5.20;73.87
11856;BME280;5987;53.140;8.904;2023-02-28T14:32:47;103127.72;;;5.54;73.68
11856;BME280;5987;53.140;8.904;2023-02-28T14:36:06;103130.88;;;5.41;77.12
11856;BME280;5987;53.140;8.904;2023-02-28T14:39:16;103129.88;;;5.34;75.52
11856;BME280;5987;53.140;8.904;2023-02-28T14:42:29;103124.72;;;5.37;77.93
11856;BME280;5987;53.140;8.904;2023-02-28T14:45:36;103127.63;;;5.51;76.13
11856;BME280;5987;53.140;8.904;2023-02-28T14:48:40;103126.50;;;5.40;68.95
11856;BME280;5987;53.140;8.904;2023-02-28T14:51:44;103131.69;;;5.38;69.80
11856;BME280;5987;53.140;8.904;2023-02-28T14:54:55;103132.50;;;5.36;70.98
11856;BME280;5987;53.140;8.904;2023-02-28T14:58:02;103128.94;;;5.30;74.01
11856;BME280;5987;53.140;8.904;2023-02-28T15:01:11;103133.22;;;5.28;71.26
11856;BME280;5987;53.140;8.904;2023-02-28T15:04:25;103130.66;;;5.31;72.50
11856;BME280;5987;53.140;8.904;2023-02-28T15:07:31;103130.16;;;5.46;73.21
11856;BME280;5987;53.140;8.904;2023-02-28T15:10:37;103133.53;;;5.42;70.93
11856;BME280;5987;53.140;8.904;2023-02-28T15:13:46;103128.59;;;5.15;69.40
11856;BME280;5987;53.140;8.904;2023-02-28T15:16:57;103133.00;;;5.18;71.03
11856;BME280;5987;53.140;8.904;2023-02-28T15:20:04;103135.41;;;5.10;70.22
11856;BME280;5987;53.140;8.904;2023-02-28T15:23:08;103137.84;;;5.02;70.20
11856;BME280;5987;53.140;8.904;2023-02-28T15:26:19;103137.38;;;5.20;70.18
11856;BME280;5987;53.140;8.904;2023-02-28T15:29:27;103126.59;;;5.05;68.03
11856;BME280;5987;53.140;8.904;2023-02-28T15:32:35;103129.38;;;5.11;71.25
11856;BME280;5987;53.140;8.904;2023-02-28T15:35:41;103127.59;;;5.10;71.96
11856;BME280;5987;53.140;8.904;2023-02-28T15:38:51;103138.63;;;4.98;74.38
11856;BME280;5987;53.140;8.904;2023-02-28T15:42:22;103133.44;;;5.00;76.72
11856;BME280;5987;53.140;8.904;2023-02-28T15:45:33;103131.53;;;4.92;76.91
11856;BME280;5987;53.140;8.904;2023-02-28T15:48:47;103128.94;;;4.92;79.51
11856;BME280;5987;53.140;8.904;2023-02-28T15:51:59;103121.66;;;4.79;77.74
11856;BME280;5987;53.140;8.904;2023-02-28T15:55:11;103126.25;;;4.89;83.34
11856;BME280;5987;53.140;8.904;2023-02-28T15:58:19;103125.31;;;4.86;79.77
11856;BME280;5987;53.140;8.904;2023-02-28T16:01:26;103120.97;;;4.86;79.43
11856;BME280;5987;53.140;8.904;2023-02-28T16:04:33;103110.63;;;4.89;80.53
11856;BME280;5987;53.140;8.904;2023-02-28T16:07:39;103104.03;;;5.04;79.90
11856;BME280;5987;53.140;8.904;2023-02-28T16:10:44;103104.28;;;5.16;77.27
11856;BME280;5987;53.140;8.904;2023-02-28T16:13:51;103108.50;;;5.09;78.33
11856;BME280;5987;53.140;8.904;2023-02-28T16:17:07;103110.78;;;4.95;79.75
11856;BME280;5987;53.140;8.904;2023-02-28T16:20:18;103108.41;;;4.70;82.06
11856;BME280;5987;53.140;8.904;2023-02-28T16:23:23;103113.41;;;4.60;84.88
11856;BME280;5987;53.140;8.904;2023-02-28T16:26:27;103107.16;;;4.54;85.45
11856;BME280;5987;53.140;8.904;2023-02-28T16:29:35;103107.00;;;4.46;86.21
11856;BME280;5987;53.140;8.904;2023-02-28T16:32:39;103110.09;;;4.33;89.24
11856;BME280;5987;53.140;8.904;2023-02-28T16:35:44;103118.66;;;4.28;91.15
11856;BME280;5987;53.140;8.904;2023-02-28T16:38:48;103120.38;;;4.28;90.14
11856;BME280;5987;53.140;8.904;2023-02-28T16:41:53;103110.63;;;4.19;90.83
11856;BME280;5987;53.140;8.904;2023-02-28T16:44:58;103125.91;;;4.07;94.01
11856;BME280;5987;53.140;8.904;2023-02-28T16:48:01;103126.25;;;3.89;95.48